Time;durP1;ratioP1;P1;durP2;ratioP2;P2;SDS_P1;SDS_P2;PMS_P1;PMS_P2;Temp;Humidity;BMP_temperature;BMP_pressure;BME280_temperature;BME280_humidity;BME280_pressure;Samples;Min_cycle;Max_cycle;Signal;HPM_P1;HPM_P2
2022/03/04 00:06:30;;;;;;;2.73;1.73;;;;;;;;;;21112007;28;20215;-67
2022/03/04 00:16:32;;;;;;;3.43;2.23;;;;;;;;;;21128123;28;20331;-67
2022/03/04 00:26:35;;;;;;;2.40;1.60;;;3.80;99.90;;;;;;21108456;28;20207;-67
2022/03/04 00:36:38;;;;;;;2.77;1.90;;;;;;;;;;21109163;28;20208;-67
2022/03/04 00:46:39;;;;;;;2.97;1.97;;;;;;;;;;21108346;28;20215;-67
2022/03/04 00:56:42;;;;;;;3.73;1.63;;;;;;;;;;21108402;28;20689;-67
2022/03/04 01:06:44;;;;;;;2.60;1.90;;;;;;;;;;21120734;28;20216;-67
2022/03/04 01:16:46;;;;;;;3.17;2.17;;;;;;;;;;21138941;28;20294;-67
2022/03/04 01:44:16;;;;;;;2.93;2.40;;;;;;;;;;20900084;28;20579;-64
2022/03/04 01:54:18;;;;;;;3.50;1.60;;;;;;;;;;20882938;28;20221;-64
2022/03/04 02:04:27;;;;;;;2.53;1.70;;;;;;;;;;20862206;28;20202;-64
2022/03/04 02:14:29;;;;;;;2.80;1.70;;;;;;;;;;20858422;28;20202;-64
2022/03/04 02:24:32;;;;;;;2.57;1.90;;;2.90;99.90;;;;;;20858724;28;20209;-64
2022/03/04 02:34:34;;;;;;;2.47;2.17;;;;;;;;;;20841701;28;20229;-64
2022/03/04 02:44:35;;;;;;;2.73;2.13;;;;;;;;;;20873563;28;20229;-64
2022/03/04 02:54:37;;;;;;;2.73;1.70;;;;;;;;;;20807035;28;20280;-64
2022/03/04 03:04:39;;;;;;;4.60;2.10;;;;;;;;;;20819531;28;20293;-64
2022/03/04 03:14:41;;;;;;;2.47;1.83;;;;;;;;;;20826189;28;20211;-64
2022/03/04 03:24:43;;;;;;;2.07;1.50;;;2.40;99.90;;;;;;20812152;28;20296;-64
2022/03/04 03:34:45;;;;;;;2.10;1.40;;;;;;;;;;20814822;28;20269;-64
2022/03/04 03:44:47;;;;;;;1.50;1.10;;;;;;;;;;20814013;28;20234;-64
2022/03/04 03:54:49;;;;;;;9.53;1.90;;;;;;;;;;20797420;28;20260;-64
2022/03/04 04:04:51;;;;;;;2.17;1.90;;;;;;;;;;20795259;28;20249;-64
2022/03/04 04:14:53;;;;;;;3.00;2.33;;;;;;;;;;20795827;28;20596;-64
2022/03/04 04:24:55;;;;;;;2.10;1.53;;;;;;;;;;20810007;28;20241;-64
2022/03/04 04:34:57;;;;;;;2.87;2.03;;;;;;;;;;20807699;28;20300;-64
2022/03/04 04:45:08;;;;;;;2.47;1.87;;;1.90;99.90;;;;;;20803723;28;20631;-64
2022/03/04 04:55:11;;;;;;;3.60;2.27;;;;;;;;;;20805640;28;20209;-64
2022/03/04 05:05:12;;;;;;;2.87;1.90;;;;;;;;;;20787966;28;20249;-64
2022/03/04 05:15:14;;;;;;;3.40;2.43;;;;;;;;;;20824255;28;20269;-64
2022/03/04 05:25:16;;;;;;;2.13;1.70;;;;;;;;;;20790268;28;20226;-64
2022/03/04 05:35:18;;;;;;;3.43;2.20;;;;;;;;;;20800469;28;20221;-67
2022/03/04 05:45:20;;;;;;;3.27;2.27;;;;;;;;;;20761573;28;20210;-64
2022/03/04 05:55:22;;;;;;;4.07;2.30;;;;;;;;;;20711841;28;20694;-64
2022/03/04 06:05:24;;;;;;;2.57;1.80;;;;;;;;;;20707400;28;20219;-64
2022/03/04 06:15:26;;;;;;;3.03;2.13;;;;;;;;;;20691952;28;20554;-64
2022/03/04 06:25:28;;;;;;;2.83;1.97;;;;;;;;;;20730106;28;20215;-64
2022/03/04 06:35:29;;;;;;;3.57;2.43;;;;;;;;;;20706037;28;20301;-64
2022/03/04 06:45:31;;;;;;;2.53;1.87;;;;;;;;;;20815321;28;20214;-64
2022/03/04 06:55:33;;;;;;;2.83;2.30;;;;;;;;;;20811288;28;20618;-64
2022/03/04 07:05:36;;;;;;;3.77;2.77;;;1.60;99.90;;;;;;20772652;28;20241;-64
2022/03/04 07:15:38;;;;;;;2.40;1.83;;;1.80;99.90;;;;;;20716912;28;20273;-64
2022/03/04 07:25:41;;;;;;;3.03;2.07;;;;;;;;;;20750777;28;20219;-64
2022/03/04 07:35:45;;;;;;;4.77;3.37;;;;;;;;;;20707625;23;20242;-82
2022/03/04 07:45:46;;;;;;;2.07;1.87;;;;;;;;;;20749863;28;20215;-81
2022/03/04 07:55:48;;;;;;;3.07;1.87;;;;;;;;;;20744999;28;20254;-82
2022/03/04 08:05:50;;;;;;;3.77;2.70;;;;;;;;;;20732339;28;20312;-82
2022/03/04 08:15:52;;;;;;;4.47;2.87;;;;;;;;;;20697680;28;20238;-82
2022/03/04 08:25:55;;;;;;;4.60;3.57;;;;;;;;;;20712629;28;20223;-82
2022/03/04 08:35:57;;;;;;;5.33;2.70;;;;;;;;;;20713677;28;20290;-81
2022/03/04 08:45:59;;;;;;;5.10;3.50;;;;;;;;;;20729175;28;20223;-82
2022/03/04 08:56:00;;;;;;;4.13;3.10;;;;;;;;;;20728763;28;20219;-82
2022/03/04 09:06:02;;;;;;;5.40;3.63;;;;;;;;;;20725333;28;20436;-82
2022/03/04 09:16:04;;;;;;;4.03;2.60;;;;;;;;;;20737366;28;20223;-83
2022/03/04 09:26:07;;;;;;;5.93;4.03;;;;;;;;;;20724615;28;20215;-82
2022/03/04 09:47:10;;;;;;;5.83;3.40;;;6.60;99.90;;;;;;21040653;27;21368;-66
2022/03/04 09:57:12;;;;;;;4.37;3.50;;;;;;;;;;20972797;28;20208;-66
2022/03/04 10:07:15;;;;;;;7.50;4.10;;;7.30;99.90;;;;;;21007898;28;20230;-66
2022/03/04 10:17:18;;;;;;;5.53;3.90;;;;;;;;;;21007059;28;20234;-67
2022/03/04 10:27:20;;;;;;;5.67;3.27;;;;;;;;;;20988663;28;20209;-67
2022/03/04 10:37:40;;;;;;;6.27;3.80;;;;;;;;;;21003612;28;20235;-67
2022/03/04 10:47:49;;;;;;;5.47;3.83;;;8.40;99.90;;;;;;21025278;28;20695;-67
2022/03/04 10:57:52;;;;;;;7.07;4.43;;;;;;;;;;20922698;28;20235;-67
2022/03/04 11:07:54;;;;;;;5.63;4.17;;;;;;;;;;20963782;28;20229;-67
2022/03/04 11:17:56;;;;;;;6.70;4.73;;;;;;;;;;20951898;28;20279;-68
2022/03/04 11:28:00;;;;;;;6.97;4.07;;;;;;;;;;20895429;28;20233;-67
2022/03/04 11:38:02;;;;;;;7.50;5.03;;;;;;;;;;20882373;28;20752;-67
2022/03/04 11:48:08;;;;;;;7.23;4.87;;;9.40;99.90;;;;;;20960870;28;20283;-66
2022/03/04 11:58:10;;;;;;;8.37;4.80;;;;;;;;;;20949587;28;20325;-67
2022/03/04 12:08:13;;;;;;;7.90;4.10;;;5.50;99.90;;;;;;20939333;28;20278;-66
2022/03/04 12:18:15;;;;;;;7.50;4.60;;;;;;;;;;20934636;28;20266;-66
2022/03/04 12:28:17;;;;;;;7.23;4.73;;;;;;;;;;20937452;28;20744;-66
2022/03/04 12:38:19;;;;;;;7.67;4.10;;;;;;;;;;20939310;28;20233;-66
2022/03/04 12:48:21;;;;;;;8.23;5.07;;;;;;;;;;20956765;28;20262;-67
2022/03/04 12:58:36;;;;;;;7.00;4.60;;;;;;;;;;20956134;28;20274;-67
2022/03/04 13:08:46;;;;;;;7.20;4.83;;;10.40;99.90;;;;;;20937362;28;20216;-67
2022/03/04 13:18:48;;;;;;;7.50;4.43;;;10.60;99.90;;;;;;20954898;28;20229;-67
2022/03/04 13:28:59;;;;;;;6.43;4.17;;;;;;;;;;20952395;28;20233;-68
2022/03/04 13:39:30;;;;;;;6.20;3.57;;;;;;;;;;20869435;22;20226;-72
2022/03/04 13:50:01;;;;;;;5.73;3.90;;;;;;;;;;20829153;28;20230;-72
2022/03/04 14:00:16;;;;;;;8.90;4.37;;;10.50;99.90;;;;;;20814843;28;20284;-72
2022/03/04 14:10:18;;;;;;;7.73;4.60;;;;;;;;;;20827634;28;21283;-72
2022/03/04 14:20:20;;;;;;;7.13;4.33;;;9.80;99.90;;;;;;20824496;28;20242;-73
2022/03/04 14:30:23;;;;;;;5.93;3.83;;;;;;;;;;20834919;28;20214;-72
2022/03/04 14:40:25;;;;;;;7.07;4.20;;;9.80;99.90;;;;;;20832306;28;20214;-72
2022/03/04 14:50:29;;;;;;;6.10;3.83;;;9.50;99.90;;;;;;20851236;28;20276;-72
2022/03/04 15:00:31;;;;;;;5.33;3.90;;;9.30;99.90;;;;;;20859658;28;20241;-72
2022/03/04 15:10:33;;;;;;;6.30;3.47;;;;;;;;;;20829958;28;20218;-72
2022/03/04 15:20:35;;;;;;;6.13;3.77;;;;;;;;;;20832020;28;20203;-72
2022/03/04 15:30:41;;;;;;;5.13;3.67;;;;;;;;;;20829862;28;20245;-72
2022/03/04 15:40:43;;;;;;;7.37;4.00;;;;;;;;;;20830136;28;20296;-72
2022/03/04 15:50:44;;;;;;;6.80;3.50;;;;;;;;;;20827586;28;20244;-73
2022/03/04 16:00:46;;;;;;;6.07;3.10;;;;;;;;;;20826206;28;20203;-72
2022/03/04 16:10:47;;;;;;;7.27;4.50;;;;;;;;;;20826330;28;20244;-72
2022/03/04 16:20:49;;;;;;;5.00;2.70;;;;;;;;;;20826886;28;20626;-71
2022/03/04 16:30:54;;;;;;;5.47;2.37;;;;;;;;;;20857599;28;20223;-72
2022/03/04 16:40:56;;;;;;;6.07;3.47;;;;;;;;;;20838667;28;20245;-71
2022/03/04 16:50:59;;;;;;;5.97;2.93;;;;;;;;;;20834180;28;20276;-72
2022/03/04 17:01:02;;;;;;;6.33;3.67;;;7.80;99.90;;;;;;20823415;28;20241;-72
2022/03/04 17:11:04;;;;;;;6.63;3.00;;;;;;;;;;20817220;28;20226;-72
2022/03/04 17:21:05;;;;;;;10.57;3.60;;;;;;;;;;20827936;28;20566;-72
2022/03/04 17:31:08;;;;;;;4.00;2.27;;;;;;;;;;20818788;28;20284;-72
2022/03/04 17:41:09;;;;;;;2.23;1.60;;;;;;;;;;20801921;28;20258;-73
2022/03/04 17:51:11;;;;;;;5.57;2.97;;;;;;;;;;20763680;28;20259;-73
2022/03/04 18:01:13;;;;;;;6.67;3.77;;;;;;;;;;20818494;28;20222;-71
2022/03/04 18:11:15;;;;;;;3.73;2.07;;;;;;;;;;20818069;28;20628;-74
2022/03/04 18:21:17;;;;;;;6.17;2.20;;;;;;;;;;20823954;28;20218;-73
2022/03/04 18:31:19;;;;;;;6.40;1.40;;;;;;;;;;20853254;28;20242;-73
2022/03/04 18:41:21;;;;;;;2.53;1.50;;;;;;;;;;20839791;28;20241;-71
2022/03/04 18:51:23;;;;;;;2.93;2.00;;;;;;;;;;20858655;28;20203;-71
2022/03/04 19:01:45;;;;;;;3.87;2.37;;;;;;;;;;20815503;28;20199;-71
2022/03/04 19:11:47;;;;;;;5.17;2.80;;;;;;;;;;20812869;28;20218;-71
2022/03/04 19:21:49;;;;;;;4.10;2.47;;;;;;;;;;20812926;28;20183;-71
2022/03/04 19:31:51;;;;;;;4.80;2.53;;;;;;;;;;20813675;28;20210;-73
2022/03/04 19:41:53;;;;;;;6.10;2.50;;;;;;;;;;20777675;22;20594;-68
2022/03/04 19:51:57;;;;;;;5.80;2.70;;;6.10;99.90;;;;;;20570721;28;20232;-68
2022/03/04 20:01:59;;;;;;;6.87;3.50;;;;;;;;;;20566825;28;20259;-68
2022/03/04 20:12:02;;;;;;;6.57;3.43;;;;;;;;;;20583012;28;20212;-68
2022/03/04 20:22:04;;;;;;;5.93;3.73;;;;;;;;;;20565565;28;20176;-67
2022/03/04 20:32:08;;;;;;;6.37;3.40;;;;;;;;;;20593685;28;20235;-67
2022/03/04 20:42:10;;;;;;;6.57;3.43;;;;;;;;;;20590414;28;20196;-68
2022/03/04 20:52:12;;;;;;;4.80;3.47;;;;;;;;;;20593843;28;20859;-68
2022/03/04 21:02:15;;;;;;;7.43;4.67;;;5.40;99.90;;;;;;20639564;28;20230;-67
2022/03/04 21:12:17;;;;;;;5.73;3.43;;;;;;;;;;20644288;28;20269;-68
2022/03/04 21:22:19;;;;;;;5.13;3.37;;;;;;;;;;20588556;28;20212;-67
2022/03/04 21:32:21;;;;;;;5.03;3.47;;;;;;;;;;20530273;28;20271;-66
2022/03/04 21:42:23;;;;;;;6.30;3.90;;;;;;;;;;20589120;28;20730;-67
2022/03/04 21:52:24;;;;;;;6.97;3.83;;;;;;;;;;20562464;28;20227;-66
2022/03/04 22:02:27;;;;;;;5.87;3.57;;;;;;;;;;20604732;28;20219;-67
2022/03/04 22:12:29;;;;;;;4.37;3.30;;;;;;;;;;20589209;28;20729;-68
2022/03/04 22:22:31;;;;;;;5.70;4.17;;;;;;;;;;20601356;28;20208;-66
2022/03/04 22:32:33;;;;;;;5.00;3.27;;;;;;;;;;20586790;28;20227;-66
2022/03/04 22:42:36;;;;;;;5.77;3.83;;;;;;;;;;20626406;28;20300;-67
2022/03/04 22:52:38;;;;;;;5.67;3.80;;;4.50;99.90;;;;;;20625249;28;20220;-67
2022/03/04 23:13:00;;;;;;;7.27;3.80;;;;;;;;;;20627864;28;20591;-66
2022/03/04 23:23:02;;;;;;;6.67;3.33;;;;;;;;;;20640967;28;20780;-66
2022/03/04 23:33:04;;;;;;;4.67;2.90;;;;;;;;;;20644132;28;20278;-66
2022/03/04 23:43:06;;;;;;;5.77;3.13;;;;;;;;;;20655636;28;20274;-66
2022/03/04 23:53:08;;;;;;;6.43;3.83;;;;;;;;;;20636789;28;20224;-66
